Terminal Aerodrome Forecast
Issued by NWS Cleveland, OH

Home | Current Version | Previous Version | Graphics & Text | Print | Product List | Glossary On
Versions: 1 2 3 4 5 6 7 8 9 10 11 12 13 14 15 16 17 18 19 20 21 22 23 24 25 26 27 28 29 30 31 32 33 34
000
FTUS41 KCLE 041700
TAFCLE
TAF
KCLE 041726Z 0418/0524 29005KT P6SM OVC025
      TEMPO 0421/0423 SCT025 OVC035
     FM042300 31010KT P6SM OVC035
     FM051600 31009KT P6SM SCT035 OVC100=

USA.gov is the U.S. government's official web portal to all federal, state and local government web resources and services.